createdAt,value
2019-03-03T00:02:15.596Z,23.63
2019-03-03T00:04:43.238Z,23.53
2019-03-03T00:07:10.822Z,24.47
2019-03-03T00:09:38.489Z,23.13
2019-03-03T00:12:07.003Z,23.20
2019-03-03T00:14:34.604Z,23.43
2019-03-03T00:17:02.269Z,23.37
2019-03-03T00:19:29.872Z,22.63
2019-03-03T00:21:57.469Z,22.87
2019-03-03T00:24:26.877Z,28.73
2019-03-03T00:26:54.448Z,30.33
2019-03-03T00:29:22.040Z,25.17
2019-03-03T00:31:49.672Z,25.93
2019-03-03T00:34:17.244Z,27.70
2019-03-03T00:37:13.235Z,25.43
2019-03-03T00:40:06.169Z,22.53
2019-03-03T00:42:53.262Z,23.17
2019-03-03T00:45:49.376Z,24.27
2019-03-03T00:48:42.783Z,25.67
2019-03-03T00:51:28.489Z,23.60
2019-03-03T00:54:05.990Z,23.40
2019-03-03T00:56:58.725Z,23.10
2019-03-03T00:59:46.637Z,23.73
2019-03-03T01:02:48.866Z,23.33
2019-03-03T01:05:24.465Z,24.10
2019-03-03T01:08:15.160Z,23.03
2019-03-03T01:11:08.299Z,23.53
2019-03-03T01:14:04.406Z,23.53
2019-03-03T01:16:48.299Z,24.90
2019-03-03T01:19:38.027Z,23.37
2019-03-03T01:22:27.665Z,26.13
2019-03-03T01:24:57.816Z,25.00
2019-03-03T01:27:26.078Z,24.87
2019-03-03T01:29:53.918Z,24.00
2019-03-03T01:32:21.490Z,24.60
2019-03-03T01:34:49.138Z,26.53
2019-03-03T01:37:16.808Z,27.63
2019-03-03T01:39:44.479Z,27.17
2019-03-03T01:42:12.038Z,25.83
2019-03-03T01:44:39.652Z,24.67
2019-03-03T01:47:07.616Z,24.67
2019-03-03T01:49:35.242Z,24.70
2019-03-03T01:52:03.020Z,24.30
2019-03-03T01:54:30.641Z,23.33
2019-03-03T01:56:58.211Z,23.10
2019-03-03T01:59:25.906Z,22.27
2019-03-03T02:01:55.267Z,23.43
2019-03-03T02:04:22.822Z,21.83
2019-03-03T02:06:50.470Z,22.50
2019-03-03T02:09:18.304Z,22.43
2019-03-03T02:11:45.938Z,22.63
2019-03-03T02:14:13.528Z,24.13
2019-03-03T02:16:41.087Z,22.53
2019-03-03T02:19:08.721Z,21.90
2019-03-03T02:21:36.261Z,22.53
2019-03-03T02:24:03.979Z,21.73
2019-03-03T02:26:31.657Z,22.30
2019-03-03T02:28:59.331Z,22.30
2019-03-03T02:31:26.999Z,22.53
2019-03-03T02:33:54.644Z,23.70
2019-03-03T02:36:22.271Z,22.00
2019-03-03T02:38:49.832Z,22.40
2019-03-03T02:41:18.377Z,22.00
2019-03-03T02:43:45.950Z,21.63
2019-03-03T02:46:13.535Z,21.87
2019-03-03T02:48:41.099Z,21.63
2019-03-03T02:51:08.787Z,21.20
2019-03-03T02:53:36.458Z,23.87
2019-03-03T02:56:04.159Z,23.10
2019-03-03T02:58:31.972Z,22.10
2019-03-03T03:01:34.433Z,23.60
2019-03-03T03:04:01.997Z,22.80
2019-03-03T03:06:47.826Z,22.93
2019-03-03T03:09:21.033Z,21.03
2019-03-03T03:11:58.982Z,22.47
2019-03-03T03:14:46.137Z,21.53
2019-03-03T03:17:36.039Z,21.60
2019-03-03T03:20:26.045Z,20.13
2019-03-03T03:23:15.804Z,21.17
2019-03-03T03:26:05.549Z,19.97
2019-03-03T03:28:55.480Z,21.70
2019-03-03T03:31:29.203Z,22.47
2019-03-03T03:34:03.345Z,21.27
2019-03-03T03:36:44.200Z,21.10
2019-03-03T03:39:23.939Z,21.80
2019-03-03T03:42:11.415Z,30.23
2019-03-03T03:45:07.499Z,27.73
2019-03-03T03:47:57.249Z,27.10
2019-03-03T03:50:43.739Z,25.13
2019-03-03T03:53:29.731Z,25.10
2019-03-03T03:56:19.408Z,24.50
2019-03-03T03:59:05.242Z,25.03
2019-03-03T04:01:52.317Z,24.13
2019-03-03T04:04:33.206Z,25.00
2019-03-03T04:07:23.879Z,23.70
2019-03-03T04:10:11.011Z,24.20
2019-03-03T04:12:54.480Z,23.87
2019-03-03T04:15:41.624Z,23.03
2019-03-03T04:18:22.676Z,23.60
2019-03-03T04:21:08.562Z,25.10
2019-03-03T04:23:58.456Z,24.67
2019-03-03T04:26:48.346Z,24.40
2019-03-03T04:29:44.329Z,25.03
2019-03-03T04:32:31.459Z,26.17
2019-03-03T04:35:24.492Z,26.03
2019-03-03T04:38:10.463Z,26.40
2019-03-03T04:41:01.156Z,25.83
2019-03-03T04:43:40.574Z,23.63
2019-03-03T04:46:30.349Z,24.80
2019-03-03T04:49:20.437Z,25.23
2019-03-03T04:52:16.684Z,23.47
2019-03-03T04:55:12.509Z,24.60
2019-03-03T04:57:47.169Z,24.40
2019-03-03T05:00:34.390Z,24.80
2019-03-03T05:03:20.078Z,23.70
2019-03-03T05:06:15.956Z,24.00
2019-03-03T05:09:12.259Z,23.30
2019-03-03T05:12:39.783Z,24.30
2019-03-03T05:15:33.231Z,23.90
2019-03-03T05:18:07.427Z,22.93
2019-03-03T05:20:46.624Z,23.30
2019-03-03T05:23:17.048Z,23.97
2019-03-03T05:25:44.717Z,22.63
2019-03-03T05:28:12.239Z,22.83
2019-03-03T05:30:39.865Z,23.57
2019-03-03T05:33:07.408Z,23.30
2019-03-03T05:35:35.065Z,24.37
2019-03-03T05:38:02.582Z,23.33
2019-03-03T05:40:30.163Z,23.77
2019-03-03T05:42:57.747Z,23.73
2019-03-03T05:45:25.351Z,27.10
2019-03-03T05:47:52.898Z,27.00
2019-03-03T05:50:20.516Z,24.77
2019-03-03T05:52:48.066Z,25.00
2019-03-03T05:55:15.703Z,24.13
2019-03-03T05:57:43.279Z,25.03
2019-03-03T06:00:12.296Z,25.93
2019-03-03T06:02:39.864Z,26.33
2019-03-03T06:05:07.822Z,24.77
2019-03-03T06:07:35.334Z,24.47
2019-03-03T06:10:03.728Z,25.20
2019-03-03T06:12:31.297Z,26.23
2019-03-03T06:14:58.980Z,25.07
2019-03-03T06:17:26.518Z,25.27
2019-03-03T06:19:54.116Z,24.90
2019-03-03T06:22:21.741Z,24.37
2019-03-03T06:24:49.673Z,23.73
2019-03-03T06:27:19.063Z,24.23
2019-03-03T06:29:46.768Z,24.40
2019-03-03T06:32:14.382Z,26.27
2019-03-03T06:34:42.071Z,25.87
2019-03-03T06:37:09.780Z,26.03
2019-03-03T06:39:37.448Z,27.47
2019-03-03T06:42:05.087Z,26.37
2019-03-03T06:44:32.759Z,27.90
2019-03-03T06:47:00.470Z,28.67
2019-03-03T06:49:28.102Z,28.73
2019-03-03T06:51:58.764Z,25.70
2019-03-03T06:54:26.482Z,25.03
2019-03-03T06:56:54.112Z,24.80
2019-03-03T06:59:23.185Z,24.70
2019-03-03T07:01:50.722Z,25.93
2019-03-03T07:04:18.399Z,27.13
2019-03-03T07:06:45.928Z,25.23
2019-03-03T07:09:13.499Z,23.87
2019-03-03T07:11:41.031Z,24.70
2019-03-03T07:14:08.626Z,26.47
2019-03-03T07:16:36.178Z,25.43
2019-03-03T07:19:03.841Z,23.93
2019-03-03T07:21:31.414Z,26.30
2019-03-03T07:23:59.095Z,24.53
2019-03-03T07:26:26.795Z,25.13
2019-03-03T07:28:54.472Z,24.40
2019-03-03T07:31:22.207Z,25.17
2019-03-03T07:33:53.447Z,24.63
2019-03-03T07:36:22.884Z,24.63
2019-03-03T07:38:50.606Z,24.87
2019-03-03T07:41:18.422Z,24.43
2019-03-03T07:43:46.148Z,25.53
2019-03-03T07:46:13.818Z,23.97
2019-03-03T07:48:41.383Z,25.23
2019-03-03T07:51:09.224Z,24.83
2019-03-03T07:53:36.878Z,24.67
2019-03-03T07:56:04.556Z,24.80
2019-03-03T07:58:32.142Z,24.10
2019-03-03T08:00:59.825Z,24.40
2019-03-03T08:03:27.408Z,24.33
2019-03-03T08:05:55.128Z,24.67
2019-03-03T08:08:22.682Z,24.53
2019-03-03T08:10:50.408Z,25.63
2019-03-03T08:13:18.994Z,24.97
2019-03-03T08:15:46.743Z,26.07
2019-03-03T08:18:15.281Z,24.97
2019-03-03T08:20:42.971Z,24.30
2019-03-03T08:23:10.549Z,23.97
2019-03-03T08:25:39.202Z,24.73
2019-03-03T08:28:06.766Z,23.10
2019-03-03T08:30:34.493Z,23.20
2019-03-03T08:33:02.102Z,24.83
2019-03-03T08:35:29.755Z,24.47
2019-03-03T08:37:57.589Z,24.93
2019-03-03T08:40:25.271Z,25.50
2019-03-03T08:43:04.246Z,24.07
2019-03-03T08:45:49.990Z,23.47
2019-03-03T08:48:35.755Z,23.33
2019-03-03T08:51:15.245Z,25.27
2019-03-03T08:54:05.434Z,25.50
2019-03-03T08:56:45.435Z,23.97
2019-03-03T08:59:38.365Z,20.87
2019-03-03T09:02:23.810Z,20.67
2019-03-03T09:05:14.659Z,21.40
2019-03-03T09:08:20.133Z,20.47
2019-03-03T09:10:57.568Z,18.50
2019-03-03T09:13:37.435Z,17.63
2019-03-03T09:16:27.905Z,18.23
2019-03-03T09:19:24.136Z,17.17
2019-03-03T09:22:13.946Z,18.90
2019-03-03T09:24:57.290Z,19.17
2019-03-03T09:27:47.597Z,19.57
2019-03-03T09:30:33.479Z,18.53
2019-03-03T09:33:20.755Z,18.73
2019-03-03T09:36:08.213Z,18.37
2019-03-03T09:38:54.256Z,18.97
2019-03-03T09:41:50.677Z,18.40
2019-03-03T09:44:37.892Z,18.53
2019-03-03T09:47:19.836Z,18.10
2019-03-03T09:50:05.592Z,17.70
2019-03-03T09:52:40.466Z,16.23
2019-03-03T09:55:26.254Z,15.83
2019-03-03T09:58:07.255Z,15.27
2019-03-03T10:00:57.264Z,11.97
2019-03-03T10:03:32.063Z,9.53
2019-03-03T10:06:34.614Z,11.50
2019-03-03T10:09:40.037Z,8.00
2019-03-03T10:12:30.181Z,8.10
2019-03-03T10:15:12.755Z,10.83
2019-03-03T10:17:55.129Z,7.20
2019-03-03T10:20:48.230Z,8.80
2019-03-03T10:23:34.372Z,9.03
2019-03-03T10:26:24.987Z,9.60
2019-03-03T10:29:12.174Z,9.63
2019-03-03T10:31:57.760Z,10.73
2019-03-03T10:34:44.945Z,10.13
2019-03-03T10:37:35.079Z,9.93
2019-03-03T10:40:20.823Z,10.93
2019-03-03T10:42:59.973Z,11.43
2019-03-03T10:45:47.094Z,10.80
2019-03-03T10:48:43.343Z,10.90
2019-03-03T10:51:22.046Z,11.03
2019-03-03T10:54:07.602Z,9.87
2019-03-03T10:56:56.415Z,10.83
2019-03-03T10:59:43.610Z,10.43
2019-03-03T11:02:39.406Z,9.47
2019-03-03T11:05:23.978Z,8.00
2019-03-03T11:08:20.156Z,9.40
2019-03-03T11:11:25.445Z,9.10
2019-03-03T11:14:22.421Z,9.20
2019-03-03T11:17:08.010Z,9.00
2019-03-03T11:19:50.866Z,7.87
2019-03-03T11:22:40.764Z,7.53
2019-03-03T11:25:28.031Z,7.47
2019-03-03T11:28:12.039Z,6.73
2019-03-03T11:30:45.763Z,7.67
2019-03-03T11:33:33.241Z,7.10
2019-03-03T11:36:18.661Z,6.27
2019-03-03T11:38:54.864Z,5.80
2019-03-03T11:41:29.900Z,6.60
2019-03-03T11:44:15.934Z,6.53
2019-03-03T11:47:01.694Z,6.10
2019-03-03T11:49:47.745Z,5.90
2019-03-03T11:52:36.292Z,4.47
2019-03-03T11:55:29.890Z,5.23
2019-03-03T11:58:22.917Z,5.20
2019-03-03T12:01:13.088Z,4.70
2019-03-03T12:04:12.220Z,4.60
2019-03-03T12:07:08.818Z,3.60
2019-03-03T12:09:52.332Z,4.00
2019-03-03T12:12:42.362Z,4.40
2019-03-03T12:15:15.944Z,4.20
2019-03-03T12:18:03.193Z,4.23
2019-03-03T12:20:50.393Z,4.27
2019-03-03T12:23:36.219Z,3.90
2019-03-03T12:26:23.431Z,4.10
2019-03-03T12:29:19.255Z,3.60
2019-03-03T12:31:57.592Z,3.87
2019-03-03T12:34:40.967Z,4.17
2019-03-03T12:37:31.166Z,4.43
2019-03-03T12:40:16.792Z,4.57
2019-03-03T12:43:02.610Z,4.97
2019-03-03T12:45:48.273Z,5.07
2019-03-03T12:48:35.600Z,4.60
2019-03-03T12:51:23.021Z,3.40
2019-03-03T12:54:21.987Z,2.60
2019-03-03T12:57:01.353Z,2.60
2019-03-03T12:59:46.674Z,1.90
2019-03-03T13:02:25.452Z,2.30
2019-03-03T13:05:18.440Z,2.50
2019-03-03T13:07:52.329Z,2.67
2019-03-03T13:10:44.216Z,3.30
2019-03-03T13:13:19.240Z,4.63
2019-03-03T13:16:02.576Z,2.87
2019-03-03T13:19:02.055Z,2.37
2019-03-03T13:21:57.070Z,3.13
2019-03-03T13:24:50.566Z,2.13
2019-03-03T13:27:37.832Z,2.00
2019-03-03T13:30:31.275Z,2.30
2019-03-03T13:33:18.660Z,2.17
2019-03-03T13:36:06.290Z,2.23
2019-03-03T13:39:03.077Z,2.23
2019-03-03T13:41:57.981Z,2.00
2019-03-03T13:44:25.925Z,2.17
2019-03-03T13:46:54.505Z,2.10
2019-03-03T13:49:42.546Z,1.90
2019-03-03T13:52:38.940Z,1.90
2019-03-03T13:55:09.601Z,1.83
2019-03-03T13:57:37.350Z,1.90
2019-03-03T14:00:07.469Z,1.70
2019-03-03T14:02:35.123Z,1.97
2019-03-03T14:05:03.023Z,1.90
2019-03-03T14:07:32.118Z,2.10
2019-03-03T14:09:59.858Z,1.77
2019-03-03T14:12:27.634Z,1.97
2019-03-03T14:14:55.323Z,2.20
2019-03-03T14:17:23.080Z,2.20
2019-03-03T14:19:50.864Z,1.90
2019-03-03T14:22:18.581Z,2.17
2019-03-03T14:24:46.291Z,3.73
2019-03-03T14:27:17.820Z,1.93
2019-03-03T14:29:45.693Z,1.70
2019-03-03T14:32:13.501Z,2.00
2019-03-03T14:34:41.309Z,1.83
2019-03-03T14:37:09.555Z,1.70
2019-03-03T14:39:39.387Z,1.53
2019-03-03T14:42:06.995Z,1.70
2019-03-03T14:44:34.876Z,1.60
2019-03-03T14:47:02.648Z,1.63
2019-03-03T14:49:30.485Z,1.57
2019-03-03T14:51:58.208Z,1.70
2019-03-03T14:54:25.912Z,1.57
2019-03-03T14:56:56.075Z,1.50
2019-03-03T14:59:23.844Z,2.10
2019-03-03T15:01:51.529Z,1.60
2019-03-03T15:04:19.290Z,1.70
2019-03-03T15:06:46.983Z,1.67
2019-03-03T15:09:20.317Z,1.33
2019-03-03T15:11:48.057Z,1.40
2019-03-03T15:14:15.821Z,1.70
2019-03-03T15:16:43.374Z,1.60
2019-03-03T15:19:12.190Z,1.63
2019-03-03T15:21:42.694Z,1.67
2019-03-03T15:24:11.512Z,1.50
2019-03-03T15:26:39.216Z,1.90
2019-03-03T15:29:06.970Z,1.67
2019-03-03T15:31:37.643Z,1.60
2019-03-03T15:34:04.338Z,1.73
2019-03-03T15:36:32.108Z,2.00
2019-03-03T15:38:59.813Z,1.83
2019-03-03T15:41:27.539Z,1.70
2019-03-03T15:43:55.097Z,2.13
2019-03-03T15:46:22.778Z,1.90
2019-03-03T15:48:53.310Z,1.70
2019-03-03T15:51:21.065Z,2.00
2019-03-03T15:53:48.721Z,2.23
2019-03-03T15:56:16.419Z,2.50
2019-03-03T15:58:44.210Z,2.10
2019-03-03T16:01:14.462Z,2.10
2019-03-03T16:03:42.169Z,2.60
2019-03-03T16:06:09.836Z,2.00
2019-03-03T16:08:37.554Z,2.20
2019-03-03T16:11:05.121Z,2.03
2019-03-03T16:13:32.785Z,2.23
2019-03-03T16:16:00.348Z,3.80
2019-03-03T16:18:28.069Z,3.30
2019-03-03T16:20:55.611Z,3.27
2019-03-03T16:23:23.234Z,2.90
2019-03-03T16:25:50.824Z,2.70
2019-03-03T16:28:18.758Z,3.43
2019-03-03T16:30:46.331Z,3.30
2019-03-03T16:33:20.413Z,3.40
2019-03-03T16:35:46.555Z,4.07
2019-03-03T16:38:14.225Z,4.40
2019-03-03T16:40:41.768Z,3.37
2019-03-03T16:43:09.423Z,3.30
2019-03-03T16:45:36.995Z,3.27
2019-03-03T16:48:04.648Z,3.27
2019-03-03T16:50:34.502Z,2.73
2019-03-03T16:53:02.195Z,2.67
2019-03-03T16:55:29.802Z,2.77
2019-03-03T16:57:57.420Z,2.70
2019-03-03T17:00:25.140Z,2.37
2019-03-03T17:02:52.796Z,3.70
2019-03-03T17:05:20.675Z,3.10
2019-03-03T17:07:48.309Z,4.67
2019-03-03T17:10:15.857Z,5.13
2019-03-03T17:12:43.658Z,5.57
2019-03-03T17:15:13.888Z,3.57
2019-03-03T17:17:41.641Z,3.53
2019-03-03T17:20:09.500Z,2.93
2019-03-03T17:22:37.235Z,2.77
2019-03-03T17:25:08.095Z,2.80
2019-03-03T17:27:35.903Z,3.30
2019-03-03T17:30:04.779Z,3.60
2019-03-03T17:32:32.537Z,4.40
2019-03-03T17:35:00.313Z,5.40
2019-03-03T17:37:28.227Z,4.77
2019-03-03T17:39:56.012Z,5.23
2019-03-03T17:42:24.144Z,5.93
2019-03-03T17:44:51.935Z,6.77
2019-03-03T17:47:19.721Z,9.83
2019-03-03T17:49:47.457Z,17.70
2019-03-03T17:52:15.204Z,9.27
2019-03-03T17:54:42.861Z,8.70
2019-03-03T17:57:10.483Z,6.17
2019-03-03T17:59:38.190Z,5.70
2019-03-03T18:02:05.962Z,7.53
2019-03-03T18:04:35.431Z,7.30
2019-03-03T18:07:03.092Z,7.67
2019-03-03T18:09:30.788Z,7.10
2019-03-03T18:11:59.719Z,6.67
2019-03-03T18:14:27.446Z,7.20
2019-03-03T18:16:55.079Z,7.47
2019-03-03T18:19:22.827Z,7.07
2019-03-03T18:21:50.510Z,6.97
2019-03-03T18:24:18.161Z,6.23
2019-03-03T18:26:45.796Z,7.67
2019-03-03T18:29:13.520Z,8.87
2019-03-03T18:31:41.231Z,8.63
2019-03-03T18:34:08.986Z,7.97
2019-03-03T18:36:36.683Z,7.80
2019-03-03T18:39:06.727Z,7.97
2019-03-03T18:41:36.266Z,7.97
2019-03-03T18:44:04.014Z,7.90
2019-03-03T18:46:31.745Z,7.50
2019-03-03T18:48:59.443Z,8.70
2019-03-03T18:51:27.064Z,7.53
2019-03-03T18:53:54.739Z,8.50
2019-03-03T18:56:22.775Z,8.13
2019-03-03T18:58:50.501Z,8.43
2019-03-03T19:01:18.237Z,8.00
2019-03-03T19:03:46.027Z,8.13
2019-03-03T19:06:13.722Z,8.03
2019-03-03T19:08:41.414Z,7.60
2019-03-03T19:11:09.081Z,8.30
2019-03-03T19:13:36.645Z,8.77
2019-03-03T19:16:04.406Z,10.83
2019-03-03T19:18:31.977Z,11.57
2019-03-03T19:20:59.634Z,10.60
2019-03-03T19:23:27.161Z,10.07
2019-03-03T19:25:54.781Z,9.90
2019-03-03T19:28:22.360Z,12.27
2019-03-03T19:30:49.983Z,9.27
2019-03-03T19:33:21.513Z,8.90
2019-03-03T19:35:49.188Z,7.73
2019-03-03T19:38:17.953Z,7.90
2019-03-03T19:40:45.570Z,7.50
2019-03-03T19:43:13.281Z,7.77
2019-03-03T19:45:40.847Z,7.93
2019-03-03T19:48:08.906Z,7.37
2019-03-03T19:50:36.487Z,7.33
2019-03-03T19:53:06.122Z,6.90
2019-03-03T19:55:33.747Z,6.47
2019-03-03T19:58:01.491Z,6.40
2019-03-03T20:00:35.418Z,6.30
2019-03-03T20:03:02.164Z,8.33
2019-03-03T20:05:29.896Z,6.30
2019-03-03T20:07:57.654Z,6.10
2019-03-03T20:10:25.435Z,6.77
2019-03-03T20:12:56.082Z,7.27
2019-03-03T20:15:23.842Z,6.07
2019-03-03T20:17:51.556Z,6.23
2019-03-03T20:20:19.375Z,6.80
2019-03-03T20:22:46.972Z,6.17
2019-03-03T20:25:14.741Z,7.83
2019-03-03T20:27:42.569Z,7.20
2019-03-03T20:30:12.819Z,7.33
2019-03-03T20:32:40.465Z,7.53
2019-03-03T20:35:08.795Z,7.50
2019-03-03T20:37:36.577Z,6.30
2019-03-03T20:40:05.700Z,7.03
2019-03-03T20:42:33.418Z,7.63
2019-03-03T20:45:01.058Z,7.53
2019-03-03T20:47:28.772Z,7.13
2019-03-03T20:49:56.446Z,7.60
2019-03-03T20:52:24.153Z,7.17
2019-03-03T20:54:51.773Z,6.73
2019-03-03T20:57:19.546Z,7.33
2019-03-03T20:59:47.097Z,7.60
2019-03-03T21:02:14.832Z,9.50
2019-03-03T21:04:42.603Z,11.53
2019-03-03T21:07:10.307Z,11.73
2019-03-03T21:09:37.942Z,12.60
2019-03-03T21:12:05.583Z,12.90
2019-03-03T21:14:33.241Z,12.50
2019-03-03T21:17:00.942Z,12.73
2019-03-03T21:19:28.676Z,13.17
2019-03-03T21:21:56.450Z,12.53
2019-03-03T21:24:24.325Z,11.97
2019-03-03T21:26:51.945Z,11.47
2019-03-03T21:29:20.001Z,11.80
2019-03-03T21:31:50.145Z,11.07
2019-03-03T21:34:17.802Z,11.17
2019-03-03T21:36:45.583Z,10.27
2019-03-03T21:39:13.478Z,10.60
2019-03-03T21:41:41.394Z,10.77
2019-03-03T21:44:09.095Z,9.73
2019-03-03T21:46:36.600Z,9.17
2019-03-03T21:49:04.174Z,9.73
2019-03-03T21:51:31.843Z,9.70
2019-03-03T21:53:59.504Z,9.40
2019-03-03T21:56:28.599Z,8.77
2019-03-03T21:58:56.278Z,9.50
2019-03-03T22:01:23.980Z,9.60
2019-03-03T22:03:51.576Z,9.47
2019-03-03T22:06:19.262Z,9.17
2019-03-03T22:08:46.910Z,9.37
2019-03-03T22:11:14.546Z,9.23
2019-03-03T22:13:42.226Z,8.70
2019-03-03T22:16:09.889Z,8.43
2019-03-03T22:18:37.555Z,8.90
2019-03-03T22:21:06.148Z,8.73
2019-03-03T22:23:33.828Z,8.87
2019-03-03T22:26:01.398Z,8.03
2019-03-03T22:28:29.029Z,8.53
2019-03-03T22:30:56.581Z,7.73
2019-03-03T22:33:24.186Z,8.00
2019-03-03T22:35:51.785Z,7.53
2019-03-03T22:38:21.205Z,8.27
2019-03-03T22:40:48.883Z,8.13
2019-03-03T22:43:16.461Z,7.80
2019-03-03T22:45:44.038Z,8.60
2019-03-03T22:48:11.662Z,8.17
2019-03-03T22:50:39.199Z,7.60
2019-03-03T22:53:06.811Z,7.90
2019-03-03T22:55:35.819Z,7.70
2019-03-03T22:58:03.385Z,8.70
2019-03-03T23:01:00.596Z,7.03
2019-03-03T23:03:35.121Z,7.93
2019-03-03T23:06:10.666Z,7.20
2019-03-03T23:08:49.576Z,8.20
2019-03-03T23:12:04.989Z,7.93
2019-03-03T23:14:58.644Z,7.90
2019-03-03T23:17:58.909Z,7.20
2019-03-03T23:21:01.861Z,7.20
2019-03-03T23:24:23.318Z,6.77
2019-03-03T23:26:50.877Z,6.40
2019-03-03T23:29:18.441Z,6.70
2019-03-03T23:31:46.067Z,6.50
2019-03-03T23:34:13.758Z,6.40
2019-03-03T23:36:41.314Z,6.17
2019-03-03T23:39:09.182Z,6.50
2019-03-03T23:41:36.735Z,6.47
2019-03-03T23:44:04.348Z,6.10
2019-03-03T23:46:31.946Z,6.70
2019-03-03T23:48:59.632Z,6.20
2019-03-03T23:51:27.171Z,6.53
2019-03-03T23:53:54.785Z,6.73
2019-03-03T23:56:22.370Z,6.67
2019-03-03T23:58:50.011Z,7.00
